createdAt,value
2018-03-03T00:00:25.576Z,50.53
2018-03-03T00:02:53.109Z,49.63
2018-03-03T00:05:20.647Z,47.88
2018-03-03T00:07:48.152Z,52.62
2018-03-03T00:10:15.673Z,50.38
2018-03-03T00:12:43.182Z,49.88
2018-03-03T00:15:11.228Z,49.85
2018-03-03T00:17:38.748Z,50.78
2018-03-03T00:20:06.798Z,47.60
2018-03-03T00:22:43.026Z,53.53
2018-03-03T00:25:10.552Z,46.90
2018-03-03T00:27:38.068Z,47.42
2018-03-03T00:30:08.446Z,52.10
2018-03-03T00:32:35.968Z,47.53
2018-03-03T00:35:03.485Z,48.08
2018-03-03T00:37:31.027Z,50.58
2018-03-03T00:39:58.538Z,47.10
2018-03-03T00:42:26.053Z,45.45
2018-03-03T00:44:53.567Z,47.97
2018-03-03T00:47:21.086Z,47.15
2018-03-03T00:49:48.596Z,46.25
2018-03-03T00:52:16.111Z,51.08
2018-03-03T00:54:43.624Z,47.85
2018-03-03T00:57:11.137Z,46.33
2018-03-03T00:59:38.654Z,49.63
2018-03-03T01:02:06.757Z,47.00
2018-03-03T01:04:34.273Z,49.08
2018-03-03T01:07:01.790Z,46.25
2018-03-03T01:09:29.313Z,44.75
2018-03-03T01:11:56.828Z,45.90
2018-03-03T01:14:24.344Z,43.25
2018-03-03T01:16:51.868Z,43.22
2018-03-03T01:19:19.372Z,41.97
2018-03-03T01:21:46.884Z,45.05
2018-03-03T01:24:14.397Z,44.45
2018-03-03T01:26:42.160Z,45.50
2018-03-03T01:29:09.682Z,45.92
2018-03-03T01:31:37.201Z,42.95
2018-03-03T01:34:04.720Z,45.00
2018-03-03T01:36:32.259Z,44.28
2018-03-03T01:38:59.985Z,46.08
2018-03-03T01:41:27.497Z,45.25
2018-03-03T01:43:55.023Z,44.88
2018-03-03T01:46:22.559Z,46.58
2018-03-03T01:48:50.074Z,43.47
2018-03-03T01:51:23.996Z,49.25
2018-03-03T01:53:51.519Z,45.40
2018-03-03T01:56:19.032Z,42.47
2018-03-03T01:58:46.561Z,49.17
2018-03-03T02:01:14.068Z,48.42
2018-03-03T02:03:41.589Z,50.88
2018-03-03T02:06:09.109Z,48.67
2018-03-03T02:08:36.614Z,46.10
2018-03-03T02:11:04.144Z,46.35
2018-03-03T02:13:31.664Z,46.40
2018-03-03T02:15:59.193Z,45.42
2018-03-03T02:18:26.703Z,50.30
2018-03-03T02:20:54.234Z,49.05
2018-03-03T02:23:21.762Z,49.53
2018-03-03T02:25:49.278Z,48.90
2018-03-03T02:28:16.792Z,46.15
2018-03-03T02:30:44.626Z,47.72
2018-03-03T02:33:12.177Z,47.30
2018-03-03T02:35:39.705Z,50.22
2018-03-03T02:38:07.259Z,46.83
2018-03-03T02:40:34.973Z,49.63
2018-03-03T02:43:02.491Z,48.50
2018-03-03T02:45:30.026Z,50.35
2018-03-03T02:47:57.546Z,47.80
2018-03-03T02:50:25.062Z,48.47
2018-03-03T02:52:52.582Z,43.20
2018-03-03T02:55:20.096Z,46.88
2018-03-03T02:57:47.619Z,47.53
2018-03-03T03:00:15.156Z,46.22
2018-03-03T03:02:42.670Z,48.65
2018-03-03T03:05:10.739Z,48.28
2018-03-03T03:07:38.249Z,46.00
2018-03-03T03:10:07.996Z,44.45
2018-03-03T03:12:35.542Z,46.00
2018-03-03T03:15:03.073Z,46.05
2018-03-03T03:17:30.593Z,43.65
2018-03-03T03:19:58.100Z,45.12
2018-03-03T03:22:25.613Z,43.05
2018-03-03T03:24:53.160Z,41.33
2018-03-03T03:27:20.499Z,43.75
2018-03-03T03:29:48.014Z,43.33
2018-03-03T03:32:15.549Z,44.00
2018-03-03T03:34:43.068Z,42.30
2018-03-03T03:37:10.590Z,46.00
2018-03-03T03:39:38.110Z,43.90
2018-03-03T03:42:05.638Z,44.30
2018-03-03T03:44:33.158Z,43.25
2018-03-03T03:47:00.667Z,43.33
2018-03-03T03:49:28.193Z,42.83
2018-03-03T03:51:55.716Z,40.75
2018-03-03T03:54:23.974Z,41.63
2018-03-03T03:56:51.488Z,38.58
2018-03-03T03:59:19.015Z,40.75
2018-03-03T04:01:47.405Z,41.05
2018-03-03T04:04:14.937Z,42.13
2018-03-03T04:06:42.633Z,39.28
2018-03-03T04:09:10.148Z,40.78
2018-03-03T04:11:37.681Z,42.78
2018-03-03T04:14:05.209Z,40.38
2018-03-03T04:16:32.725Z,40.85
2018-03-03T04:19:00.270Z,42.50
2018-03-03T04:21:27.609Z,38.75
2018-03-03T04:23:54.949Z,41.97
2018-03-03T04:26:22.058Z,41.20
2018-03-03T04:28:49.376Z,39.33
2018-03-03T04:31:16.888Z,38.78
2018-03-03T04:33:44.922Z,44.40
2018-03-03T04:36:12.675Z,39.50
2018-03-03T04:38:40.003Z,41.30
2018-03-03T04:41:07.528Z,42.30
2018-03-03T04:43:34.865Z,41.42
2018-03-03T04:46:03.057Z,40.40
2018-03-03T04:48:30.397Z,39.97
2018-03-03T04:50:57.721Z,41.92
2018-03-03T04:53:25.054Z,43.28
2018-03-03T04:55:52.382Z,43.00
2018-03-03T04:58:23.249Z,39.97
2018-03-03T05:00:54.837Z,40.15
2018-03-03T05:03:40.984Z,42.83
2018-03-03T05:06:14.001Z,42.42
2018-03-03T05:08:41.321Z,43.05
2018-03-03T05:11:10.312Z,42.70
2018-03-03T05:13:42.478Z,43.67
2018-03-03T05:16:15.616Z,39.53
2018-03-03T05:19:01.701Z,42.00
2018-03-03T05:21:46.667Z,41.50
2018-03-03T05:24:19.726Z,42.60
2018-03-03T05:26:52.875Z,41.13
2018-03-03T05:29:26.009Z,39.83
2018-03-03T05:32:09.009Z,39.10
2018-03-03T05:34:42.009Z,41.00
2018-03-03T05:37:13.138Z,40.33
2018-03-03T05:39:46.238Z,37.95
2018-03-03T05:42:19.360Z,39.85
2018-03-03T05:45:06.844Z,41.25
2018-03-03T05:47:39.852Z,37.05
2018-03-03T05:50:12.473Z,37.15
2018-03-03T05:52:45.572Z,36.88
2018-03-03T05:55:13.458Z,38.45
2018-03-03T05:57:46.661Z,35.90
2018-03-03T06:00:28.860Z,39.33
2018-03-03T06:03:16.901Z,36.22
2018-03-03T06:05:49.889Z,36.72
2018-03-03T06:08:32.101Z,37.60
2018-03-03T06:10:59.465Z,35.53
2018-03-03T06:13:26.999Z,35.90
2018-03-03T06:15:54.563Z,36.13
2018-03-03T06:18:22.692Z,35.50
2018-03-03T06:20:50.232Z,34.08
2018-03-03T06:23:17.749Z,31.40
2018-03-03T06:25:45.335Z,35.35
2018-03-03T06:28:12.890Z,34.65
2018-03-03T06:30:40.411Z,34.47
2018-03-03T06:33:08.490Z,31.95
2018-03-03T06:35:36.721Z,35.05
2018-03-03T06:38:04.236Z,32.00
2018-03-03T06:40:31.772Z,33.55
2018-03-03T06:42:59.526Z,31.37
2018-03-03T06:45:27.029Z,31.50
2018-03-03T06:47:54.537Z,31.55
2018-03-03T06:50:22.108Z,30.60
2018-03-03T06:52:50.325Z,31.02
2018-03-03T06:55:17.835Z,31.15
2018-03-03T06:57:45.349Z,32.35
2018-03-03T07:00:12.877Z,34.00
2018-03-03T07:02:40.402Z,34.85
2018-03-03T07:05:07.933Z,34.20
2018-03-03T07:07:35.449Z,33.60
2018-03-03T07:10:02.987Z,34.05
2018-03-03T07:12:30.490Z,36.13
2018-03-03T07:15:12.696Z,34.63
2018-03-03T07:17:40.215Z,34.60
2018-03-03T07:20:07.397Z,36.30
2018-03-03T07:22:34.958Z,34.72
2018-03-03T07:25:02.621Z,36.30
2018-03-03T07:27:30.152Z,37.15
2018-03-03T07:29:57.698Z,36.70
2018-03-03T07:32:25.209Z,35.58
2018-03-03T07:34:52.754Z,34.80
2018-03-03T07:37:20.914Z,38.72
2018-03-03T07:39:48.442Z,37.38
2018-03-03T07:42:15.995Z,36.42
2018-03-03T07:44:43.517Z,37.53
2018-03-03T07:47:11.038Z,36.88
2018-03-03T07:49:38.546Z,35.25
2018-03-03T07:52:06.077Z,37.55
2018-03-03T07:54:33.637Z,43.72
2018-03-03T07:57:06.733Z,61.22
2018-03-03T07:59:34.253Z,37.38
2018-03-03T08:02:01.786Z,33.63
2018-03-03T08:04:29.109Z,33.58
2018-03-03T08:06:58.782Z,36.25
2018-03-03T08:09:26.109Z,34.47
2018-03-03T08:11:53.630Z,29.90
2018-03-03T08:14:21.150Z,29.05
2018-03-03T08:16:48.695Z,29.42
2018-03-03T08:19:16.237Z,31.20
2018-03-03T08:21:43.630Z,30.33
2018-03-03T08:24:11.293Z,27.92
2018-03-03T08:26:38.842Z,38.40
2018-03-03T08:29:06.384Z,30.12
2018-03-03T08:31:34.097Z,28.17
2018-03-03T08:34:01.619Z,24.58
2018-03-03T08:36:29.155Z,23.73
2018-03-03T08:38:56.673Z,22.83
2018-03-03T08:41:24.181Z,23.40
2018-03-03T08:43:51.701Z,22.42
2018-03-03T08:46:19.226Z,23.20
2018-03-03T08:48:46.746Z,24.55
2018-03-03T08:51:14.266Z,23.70
2018-03-03T08:53:41.778Z,23.45
2018-03-03T08:56:09.308Z,23.55
2018-03-03T08:58:36.816Z,25.58
2018-03-03T09:01:04.369Z,24.12
2018-03-03T09:03:31.881Z,26.15
2018-03-03T09:05:59.392Z,24.50
2018-03-03T09:08:26.921Z,24.37
2018-03-03T09:10:54.420Z,25.88
2018-03-03T09:13:21.944Z,26.98
2018-03-03T09:15:49.465Z,27.65
2018-03-03T09:18:16.981Z,27.37
2018-03-03T09:20:44.497Z,28.58
2018-03-03T09:23:12.022Z,27.00
2018-03-03T09:25:39.598Z,27.05
2018-03-03T09:28:07.159Z,28.35
2018-03-03T09:30:34.399Z,28.50
2018-03-03T09:33:01.624Z,25.10
2018-03-03T09:35:28.866Z,27.80
2018-03-03T09:37:56.385Z,27.77
2018-03-03T09:40:23.604Z,30.30
2018-03-03T09:42:50.841Z,30.63
2018-03-03T09:45:18.366Z,30.52
2018-03-03T09:47:46.267Z,28.42
2018-03-03T09:50:13.737Z,27.10
2018-03-03T09:52:41.253Z,29.30
2018-03-03T09:55:08.767Z,27.90
2018-03-03T09:57:36.269Z,32.13
2018-03-03T10:00:03.161Z,30.17
2018-03-03T10:02:30.673Z,27.98
2018-03-03T10:04:58.203Z,29.73
2018-03-03T10:07:25.718Z,27.52
2018-03-03T10:09:52.942Z,29.10
2018-03-03T10:12:20.175Z,29.07
2018-03-03T10:14:47.698Z,30.30
2018-03-03T10:17:15.207Z,29.23
2018-03-03T10:19:42.745Z,28.60
2018-03-03T10:22:09.976Z,30.90
2018-03-03T10:24:37.201Z,31.00
2018-03-03T10:27:04.301Z,30.10
2018-03-03T10:29:31.816Z,31.37
2018-03-03T10:31:59.090Z,31.17
2018-03-03T10:34:27.101Z,32.77
2018-03-03T10:36:54.374Z,31.17
2018-03-03T10:39:21.740Z,30.73
2018-03-03T10:41:49.019Z,31.40
2018-03-03T10:44:16.257Z,29.40
2018-03-03T10:46:43.527Z,30.30
2018-03-03T10:49:10.753Z,28.07
2018-03-03T10:51:37.794Z,31.30
2018-03-03T10:54:05.034Z,30.30
2018-03-03T10:56:32.275Z,31.03
2018-03-03T10:58:59.494Z,34.83
2018-03-03T11:01:26.749Z,29.73
2018-03-03T11:03:53.969Z,31.77
2018-03-03T11:06:21.190Z,32.50
2018-03-03T11:08:48.429Z,29.97
2018-03-03T11:11:15.458Z,30.70
2018-03-03T11:13:42.677Z,30.80
2018-03-03T11:16:09.907Z,28.57
2018-03-03T11:18:37.141Z,29.77
2018-03-03T11:21:04.375Z,29.20
2018-03-03T11:23:31.617Z,29.60
2018-03-03T11:25:58.844Z,29.90
2018-03-03T11:28:26.058Z,28.20
2018-03-03T11:30:53.301Z,30.07
2018-03-03T11:33:20.526Z,28.47
2018-03-03T11:35:48.824Z,29.25
2018-03-03T11:38:16.049Z,28.67
2018-03-03T11:40:43.268Z,27.43
2018-03-03T11:43:10.489Z,28.90
2018-03-03T11:45:38.407Z,27.77
2018-03-03T11:48:05.638Z,28.03
2018-03-03T11:50:32.881Z,26.50
2018-03-03T11:53:00.115Z,27.90
2018-03-03T11:55:27.535Z,27.83
2018-03-03T11:57:54.753Z,26.80
2018-03-03T12:00:22.030Z,27.97
2018-03-03T12:02:49.085Z,24.97
2018-03-03T12:05:16.367Z,26.90
2018-03-03T12:07:43.781Z,26.30
2018-03-03T12:10:11.027Z,26.20
2018-03-03T12:12:38.252Z,27.20
2018-03-03T12:15:05.327Z,27.30
2018-03-03T12:17:32.569Z,26.50
2018-03-03T12:19:59.863Z,26.80
2018-03-03T12:22:27.106Z,27.60
2018-03-03T12:24:54.341Z,24.67
2018-03-03T12:27:22.209Z,26.43
2018-03-03T12:29:49.906Z,26.50
2018-03-03T12:32:17.139Z,24.67
2018-03-03T12:34:44.372Z,27.30
2018-03-03T12:37:11.597Z,22.60
2018-03-03T12:39:38.833Z,25.50
2018-03-03T12:42:05.867Z,24.13
2018-03-03T12:44:33.088Z,23.33
2018-03-03T12:47:00.316Z,24.73
2018-03-03T12:49:27.678Z,24.23
2018-03-03T12:51:54.907Z,23.17
2018-03-03T12:54:22.145Z,23.90
2018-03-03T12:56:49.193Z,25.87
2018-03-03T12:59:16.426Z,25.67
2018-03-03T13:01:43.650Z,25.77
2018-03-03T13:04:10.886Z,24.40
2018-03-03T13:06:37.774Z,24.30
2018-03-03T13:09:04.670Z,23.77
2018-03-03T13:11:32.438Z,26.20
2018-03-03T13:13:59.699Z,23.97
2018-03-03T13:16:27.581Z,25.00
2018-03-03T13:18:54.809Z,20.90
2018-03-03T13:21:22.032Z,22.80
2018-03-03T13:23:49.262Z,23.90
2018-03-03T13:26:16.496Z,24.70
2018-03-03T13:28:43.705Z,24.20
2018-03-03T13:31:10.933Z,22.23
2018-03-03T13:33:38.173Z,23.07
2018-03-03T13:36:05.401Z,23.67
2018-03-03T13:38:32.622Z,23.97
2018-03-03T13:40:59.843Z,24.17
2018-03-03T13:43:28.209Z,24.50
2018-03-03T13:45:55.442Z,23.73
2018-03-03T13:48:22.671Z,24.70
2018-03-03T13:50:49.903Z,25.13
2018-03-03T13:53:17.777Z,24.17
2018-03-03T13:55:45.015Z,23.80
2018-03-03T13:58:12.230Z,27.70
2018-03-03T14:00:39.456Z,27.80
2018-03-03T14:03:06.681Z,24.83
2018-03-03T14:05:33.899Z,26.90
2018-03-03T14:08:01.130Z,28.30
2018-03-03T14:10:28.358Z,28.57
2018-03-03T14:12:55.614Z,28.30
2018-03-03T14:15:22.858Z,28.27
2018-03-03T14:17:50.098Z,28.30
2018-03-03T14:20:17.309Z,27.30
2018-03-03T14:22:44.544Z,24.50
2018-03-03T14:25:11.782Z,27.43
2018-03-03T14:27:39.008Z,25.13
2018-03-03T14:30:06.322Z,27.30
2018-03-03T14:32:33.579Z,25.30
2018-03-03T14:35:01.063Z,26.30
2018-03-03T14:37:28.287Z,25.40
2018-03-03T14:39:55.506Z,24.90
2018-03-03T14:42:22.729Z,27.57
2018-03-03T14:44:49.758Z,26.90
2018-03-03T14:47:16.983Z,27.40
2018-03-03T14:49:44.205Z,27.57
2018-03-03T14:52:11.438Z,26.60
2018-03-03T14:54:38.666Z,29.83
2018-03-03T14:57:05.898Z,27.67
2018-03-03T14:59:32.941Z,28.30
2018-03-03T15:02:00.188Z,29.07
2018-03-03T15:04:27.503Z,27.43
2018-03-03T15:06:54.752Z,30.53
2018-03-03T15:09:21.966Z,29.70
2018-03-03T15:11:49.196Z,29.40
2018-03-03T15:14:16.453Z,25.33
2018-03-03T15:16:43.677Z,23.20
2018-03-03T15:19:10.900Z,25.07
2018-03-03T15:21:38.124Z,24.47
2018-03-03T15:24:05.350Z,24.67
2018-03-03T15:26:32.586Z,23.97
2018-03-03T15:28:59.828Z,22.80
2018-03-03T15:31:28.065Z,23.23
2018-03-03T15:33:56.004Z,21.63
2018-03-03T15:36:23.218Z,20.90
2018-03-03T15:38:50.526Z,21.93
2018-03-03T15:41:17.741Z,21.87
2018-03-03T15:43:45.028Z,19.23
2018-03-03T15:46:12.257Z,20.93
2018-03-03T15:48:40.977Z,20.70
2018-03-03T15:51:08.266Z,21.03
2018-03-03T15:53:35.493Z,22.57
2018-03-03T15:56:02.710Z,21.63
2018-03-03T15:58:29.933Z,23.60
2018-03-03T16:00:57.832Z,20.70
2018-03-03T16:03:25.049Z,21.73
2018-03-03T16:05:52.277Z,19.73
2018-03-03T16:08:19.634Z,24.37
2018-03-03T16:10:46.846Z,24.23
2018-03-03T16:13:14.690Z,22.17
2018-03-03T16:15:42.721Z,19.60
2018-03-03T16:18:09.966Z,19.50
2018-03-03T16:20:37.482Z,20.62
2018-03-03T16:23:04.713Z,21.27
2018-03-03T16:25:31.937Z,21.90
2018-03-03T16:27:59.154Z,23.97
2018-03-03T16:30:26.382Z,21.50
2018-03-03T16:32:53.636Z,21.80
2018-03-03T16:35:20.892Z,22.83
2018-03-03T16:37:48.131Z,24.00
2018-03-03T16:40:15.542Z,22.63
2018-03-03T16:42:42.781Z,22.43
2018-03-03T16:45:10.003Z,22.03
2018-03-03T16:47:37.236Z,20.80
2018-03-03T16:50:06.018Z,24.40
2018-03-03T16:52:33.282Z,24.90
2018-03-03T16:55:00.494Z,23.20
2018-03-03T16:57:28.486Z,25.50
2018-03-03T16:59:55.899Z,24.93
2018-03-03T17:02:24.006Z,23.70
2018-03-03T17:04:51.654Z,23.50
2018-03-03T17:07:18.906Z,25.30
2018-03-03T17:09:46.129Z,25.60
2018-03-03T17:12:13.413Z,24.47
2018-03-03T17:14:40.711Z,28.90
2018-03-03T17:17:08.083Z,23.97
2018-03-03T17:19:35.350Z,25.50
2018-03-03T17:22:02.581Z,25.67
2018-03-03T17:24:29.841Z,25.30
2018-03-03T17:26:57.349Z,25.42
2018-03-03T17:29:24.571Z,26.03
2018-03-03T17:31:51.806Z,27.43
2018-03-03T17:34:19.346Z,26.83
2018-03-03T17:36:46.575Z,28.43
2018-03-03T17:39:14.726Z,26.73
2018-03-03T17:41:41.965Z,27.87
2018-03-03T17:44:09.224Z,29.93
2018-03-03T17:46:36.543Z,28.47
2018-03-03T17:49:04.066Z,25.37
2018-03-03T17:51:31.629Z,26.10
2018-03-03T17:53:59.158Z,26.92
2018-03-03T17:56:26.705Z,27.62
2018-03-03T17:58:54.267Z,24.60
2018-03-03T18:01:21.674Z,25.67
2018-03-03T18:03:49.214Z,26.67
2018-03-03T18:06:16.733Z,25.95
2018-03-03T18:08:44.301Z,27.37
2018-03-03T18:11:11.495Z,25.65
2018-03-03T18:13:39.064Z,26.65
2018-03-03T18:16:06.640Z,26.20
2018-03-03T18:18:34.176Z,27.80
2018-03-03T18:21:01.765Z,26.80
2018-03-03T18:23:29.289Z,25.48
2018-03-03T18:25:56.832Z,25.08
2018-03-03T18:28:24.358Z,26.95
2018-03-03T18:30:51.885Z,24.80
2018-03-03T18:33:19.427Z,24.65
2018-03-03T18:35:46.945Z,24.55
2018-03-03T18:38:14.461Z,23.83
2018-03-03T18:40:42.155Z,26.90
2018-03-03T18:43:09.730Z,25.35
2018-03-03T18:45:37.278Z,25.25
2018-03-03T18:48:04.825Z,22.10
2018-03-03T18:50:32.457Z,22.13
2018-03-03T18:52:59.985Z,23.05
2018-03-03T18:55:27.213Z,21.07
2018-03-03T18:57:54.766Z,21.27
2018-03-03T19:00:22.314Z,23.12
2018-03-03T19:02:49.823Z,21.08
2018-03-03T19:05:17.330Z,22.33
2018-03-03T19:07:44.870Z,22.02
2018-03-03T19:10:12.401Z,23.17
2018-03-03T19:12:39.945Z,22.67
2018-03-03T19:15:09.997Z,22.40
2018-03-03T19:17:37.530Z,22.60
2018-03-03T19:20:06.025Z,23.98
2018-03-03T19:22:33.558Z,21.37
2018-03-03T19:25:01.090Z,22.10
2018-03-03T19:27:28.408Z,21.37
2018-03-03T19:29:55.930Z,21.92
2018-03-03T19:32:23.515Z,22.30
2018-03-03T19:34:51.060Z,21.48
2018-03-03T19:37:18.600Z,23.00
2018-03-03T19:39:46.128Z,21.35
2018-03-03T19:42:13.660Z,23.35
2018-03-03T19:44:41.220Z,22.40
2018-03-03T19:47:08.729Z,24.10
2018-03-03T19:49:36.003Z,21.43
2018-03-03T19:52:03.739Z,22.45
2018-03-03T19:54:31.339Z,24.00
2018-03-03T19:56:58.869Z,21.55
2018-03-03T19:59:26.406Z,23.27
2018-03-03T20:01:53.932Z,22.98
2018-03-03T20:04:21.445Z,22.45
2018-03-03T20:06:48.986Z,22.10
2018-03-03T20:09:16.572Z,22.17
2018-03-03T20:11:44.241Z,22.37
2018-03-03T20:14:11.754Z,21.92
2018-03-03T20:16:39.274Z,21.58
2018-03-03T20:19:06.807Z,23.40
2018-03-03T20:21:34.358Z,24.00
2018-03-03T20:24:01.913Z,21.33
2018-03-03T20:26:29.472Z,20.85
2018-03-03T20:28:56.993Z,20.20
2018-03-03T20:31:24.510Z,22.10
2018-03-03T20:33:52.029Z,20.62
2018-03-03T20:36:19.543Z,20.65
2018-03-03T20:38:47.074Z,22.20
2018-03-03T20:41:14.827Z,22.77
2018-03-03T20:43:42.362Z,20.88
2018-03-03T20:46:09.876Z,23.27
2018-03-03T20:48:37.389Z,21.35
2018-03-03T20:51:05.616Z,22.02
2018-03-03T20:53:33.129Z,22.77
2018-03-03T20:56:00.680Z,22.90
2018-03-03T20:58:28.244Z,21.80
2018-03-03T21:00:55.761Z,25.33
2018-03-03T21:03:23.342Z,24.05
2018-03-03T21:05:51.002Z,23.40
2018-03-03T21:08:18.542Z,22.92
2018-03-03T21:10:45.875Z,22.70
2018-03-03T21:13:13.206Z,23.87
2018-03-03T21:15:40.752Z,22.10
2018-03-03T21:18:08.424Z,21.40
2018-03-03T21:20:36.221Z,22.70
2018-03-03T21:23:03.744Z,22.62
2018-03-03T21:25:31.253Z,24.40
2018-03-03T21:27:58.769Z,23.23
2018-03-03T21:30:27.122Z,22.85
2018-03-03T21:32:54.681Z,23.98
2018-03-03T21:35:22.199Z,20.42
2018-03-03T21:37:49.725Z,21.70
2018-03-03T21:40:17.251Z,22.75
2018-03-03T21:42:44.770Z,22.13
2018-03-03T21:45:12.297Z,23.98
2018-03-03T21:47:39.829Z,21.20
2018-03-03T21:50:07.393Z,23.50
2018-03-03T21:52:34.949Z,24.70
2018-03-03T21:55:02.477Z,24.25
2018-03-03T21:57:30.347Z,23.70
2018-03-03T21:59:57.876Z,25.20
2018-03-03T22:02:25.393Z,24.52
2018-03-03T22:04:53.001Z,27.00
2018-03-03T22:07:20.530Z,24.87
2018-03-03T22:09:48.098Z,24.98
2018-03-03T22:12:15.633Z,22.73
2018-03-03T22:14:43.273Z,23.75
2018-03-03T22:17:10.789Z,22.95
2018-03-03T22:19:38.426Z,24.83
2018-03-03T22:22:06.667Z,22.67
2018-03-03T22:24:37.430Z,23.60
2018-03-03T22:27:05.277Z,24.27
2018-03-03T22:29:33.013Z,24.95
2018-03-03T22:32:00.543Z,25.15
2018-03-03T22:34:28.067Z,22.33
2018-03-03T22:36:55.574Z,26.10
2018-03-03T22:39:23.129Z,25.00
2018-03-03T22:41:51.402Z,27.30
2018-03-03T22:44:18.913Z,27.42
2018-03-03T22:46:46.424Z,25.48
2018-03-03T22:51:49.123Z,28.65
2018-03-03T22:54:16.697Z,25.27
2018-03-03T22:56:44.395Z,27.58
2018-03-03T22:59:11.910Z,27.23
2018-03-03T23:01:40.023Z,29.08
2018-03-03T23:04:07.535Z,30.37
2018-03-03T23:06:35.049Z,28.10
2018-03-03T23:09:02.573Z,27.73
2018-03-03T23:11:30.086Z,29.80
2018-03-03T23:13:57.639Z,30.12
2018-03-03T23:16:25.157Z,31.20
2018-03-03T23:18:52.676Z,28.73
2018-03-03T23:21:21.201Z,29.45
2018-03-03T23:23:48.716Z,27.27
2018-03-03T23:26:16.770Z,30.27
2018-03-03T23:28:44.285Z,28.12
2018-03-03T23:31:11.811Z,31.98
2018-03-03T23:33:39.330Z,29.45
2018-03-03T23:36:06.870Z,30.00
2018-03-03T23:38:34.376Z,29.30
2018-03-03T23:41:03.355Z,31.83
2018-03-03T23:43:32.752Z,33.58
2018-03-03T23:46:00.320Z,31.08
2018-03-03T23:48:27.872Z,33.85
2018-03-03T23:50:55.384Z,32.60
2018-03-03T23:55:56.821Z,36.80
2018-03-03T23:58:24.383Z,35.13
